Terminal Aerodrome Forecast
Issued by NWS Billings, MT

Home | Current Version | Previous Version | Graphics & Text | Print | Product List | Glossary On
Versions: 1 2 3 4 5 6 7 8 9 10 11 12 13 14 15 16 17 18 19 20 21 22 23 24 25 26 27 28 29 30 31 32 33 34 35 36 37 38 39
921
FTUS45 KBYZ 171726 CCA
TAFMLS
TAF COR
KMLS 171726Z 1717/1818 31016G27KT 1SM -SN BR OVC005
      TEMPO 1718/1720 1/2SM SN FZFG OVC003
     FM172000 31015KT 3SM -SN BR SCT008 OVC015
     FM172200 29011KT 6SM -RASN BR OVC025
     FM172300 28008KT P6SM VCSH FEW040 BKN100
     FM180900 29010KT P6SM SKC=

USA.gov is the U.S. government's official web portal to all federal, state and local government web resources and services.